Time;durP1;ratioP1;P1;durP2;ratioP2;P2;SDS_P1;SDS_P2;PMS_P1;PMS_P2;Temp;Humidity;BMP_temperature;BMP_pressure;BME280_temperature;BME280_humidity;BME280_pressure;Samples;Min_cycle;Max_cycle;Signal;HPM_P1;HPM_P2
2023/04/17 00:01:49;;;;;;;60.17;56.85;;;;;;;8.34;88.90;98677.91;5006730;28;20128;-78
2023/04/17 00:04:15;;;;;;;58.50;55.20;;;;;;;8.26;88.77;98675.53;5042609;28;20029;-77
2023/04/17 00:06:43;;;;;;;59.15;55.85;;;;;;;8.29;89.07;98675.06;5032036;28;20121;-77
2023/04/17 00:09:09;;;;;;;58.33;55.05;;;;;;;8.35;89.35;98674.22;5045782;28;20021;-77
2023/04/17 00:11:34;;;;;;;57.08;53.88;;;;;;;8.38;88.28;98678.31;5024733;28;20132;-75
2023/04/17 00:14:00;;;;;;;58.20;55.10;;;;;;;8.27;89.20;98677.16;5019632;28;20113;-75
2023/04/17 00:16:26;;;;;;;58.25;54.85;;;;;;;8.28;88.93;98679.59;5031834;28;20044;-75
2023/04/17 00:18:52;;;;;;;58.78;55.78;;;;;;;8.19;89.23;98670.16;5043258;28;20396;-75
2023/04/17 00:21:18;;;;;;;59.42;56.38;;;;;;;8.23;89.07;98682.09;5047501;28;20033;-75
2023/04/17 00:23:44;;;;;;;56.97;53.78;;;;;;;8.27;88.88;98682.50;5038029;28;20056;-75
2023/04/17 00:26:10;;;;;;;58.78;55.63;;;;;;;8.18;90.19;98668.53;5026652;28;20036;-75
2023/04/17 00:28:36;;;;;;;59.40;56.30;;;;;;;8.12;88.77;98665.88;5032344;28;20040;-75
2023/04/17 00:31:03;;;;;;;57.30;54.30;;;;;;;8.25;89.17;98669.28;5033006;28;20072;-75
2023/04/17 00:33:29;;;;;;;59.72;56.42;;;;;;;8.14;89.39;98670.00;5052441;28;20368;-75
2023/04/17 00:35:54;;;;;;;59.90;57.00;;;;;;;8.31;88.66;98671.13;5026961;28;20049;-77
2023/04/17 00:38:19;;;;;;;57.97;55.08;;;;;;;8.41;88.38;98672.50;5034921;28;20036;-75
2023/04/17 00:40:45;;;;;;;57.17;54.30;;;;;;;8.33;87.90;98663.66;5034840;28;20040;-75
2023/04/17 00:43:10;;;;;;;54.88;52.25;;;;;;;8.45;86.85;98668.34;5019807;28;20032;-75
2023/04/17 00:45:36;;;;;;;54.40;51.80;;;;;;;8.47;86.95;98666.28;5014862;28;20037;-75
2023/04/17 00:48:03;;;;;;;52.20;49.67;;;;;;;8.31;87.75;98668.44;5030381;28;20025;-74
2023/04/17 00:50:29;;;;;;;54.72;52.13;;;;;;;8.27;88.11;98661.88;5041967;28;20251;-74
2023/04/17 00:52:55;;;;;;;56.53;53.85;;;;;;;8.27;88.64;98661.88;5030323;28;20483;-74
2023/04/17 00:55:20;;;;;;;55.97;53.15;;;;;;;8.16;87.29;98654.50;5034275;28;20036;-74
2023/04/17 00:57:49;;;;;;;56.10;53.35;;;;;;;8.17;88.74;98656.13;5018583;28;20025;-74
2023/04/17 01:00:16;;;;;;;57.70;54.80;;;;;;;8.09;89.03;98653.72;5014943;28;20116;-74
2023/04/17 01:02:43;;;;;;;57.55;54.55;;;;;;;8.03;88.94;98653.75;5044178;28;20072;-75
2023/04/17 01:05:08;;;;;;;58.70;55.80;;;;;;;8.02;89.11;98652.94;5030907;28;20498;-75
2023/04/17 01:07:35;;;;;;;56.70;53.90;;;;;;;7.98;88.84;98646.34;5017537;28;20021;-76
2023/04/17 01:10:01;;;;;;;57.03;54.33;;;;;;;7.96;89.56;98647.63;5004908;28;20454;-76
2023/04/17 01:12:26;;;;;;;57.55;54.75;;;;;;;8.09;88.58;98637.63;5024350;28;20022;-76
2023/04/17 01:14:53;;;;;;;58.78;55.92;;;;;;;8.11;89.30;98643.59;5024151;28;20025;-76
2023/04/17 01:17:19;;;;;;;57.90;55.10;;;;;;;7.88;88.52;98646.03;5017346;28;20029;-76
2023/04/17 01:19:45;;;;;;;58.70;55.70;;;;;;;8.16;88.37;98653.69;5030979;28;20379;-76
2023/04/17 01:22:11;;;;;;;57.22;54.45;;;;;;;8.04;88.22;98652.72;5044085;28;20475;-76
2023/04/17 01:24:36;;;;;;;60.70;57.72;;;;;;;7.99;88.90;98637.28;5007773;28;20075;-76
2023/04/17 01:27:02;;;;;;;57.95;55.10;;;;;;;8.04;88.56;98650.88;5017454;28;20026;-76
2023/04/17 01:29:29;;;;;;;57.30;54.50;;;;;;;8.06;89.42;98654.16;5030629;28;20039;-76
2023/04/17 01:31:55;;;;;;;56.95;54.25;;;;;;;8.04;88.57;98650.88;5023466;28;20030;-77
2023/04/17 01:34:20;;;;;;;60.45;57.55;;;;;;;8.01;88.46;98651.28;5031193;28;20025;-76
2023/04/17 01:36:46;;;;;;;58.13;55.25;;;;;;;7.93;89.96;98653.44;5020779;28;20029;-76
2023/04/17 01:39:11;;;;;;;55.92;53.22;;;;;;;7.80;89.93;98642.75;5004230;28;20029;-75
2023/04/17 01:41:37;;;;;;;57.97;54.78;;;;;;;7.80;89.56;98651.63;5054239;28;20033;-76
2023/04/17 01:44:02;;;;;;;58.72;55.83;;;;;;;7.80;90.14;98648.13;5030766;28;20049;-75
2023/04/17 01:46:28;;;;;;;57.55;54.60;;;;;;;7.92;89.87;98649.91;5018015;28;20025;-76
2023/04/17 01:48:53;;;;;;;56.72;54.08;;;;;;;7.97;88.82;98655.47;5024315;28;20033;-76
2023/04/17 01:51:19;;;;;;;57.15;54.45;;;;;;;7.94;89.36;98661.25;5012583;28;20022;-75
2023/04/17 01:53:44;;;;;;;57.85;54.97;;;;;;;7.94;89.71;98653.19;4994218;28;20069;-76
2023/04/17 01:56:11;;;;;;;58.90;55.95;;;;;;;7.87;89.58;98649.75;5023531;28;20021;-76
2023/04/17 01:58:37;;;;;;;57.55;54.75;;;;;;;7.83;89.73;98653.06;5023717;28;20490;-75
2023/04/17 02:01:03;;;;;;;58.30;55.40;;;;;;;7.98;89.70;98653.59;5003806;28;20025;-74
2023/04/17 02:03:30;;;;;;;56.53;53.72;;;;;;;7.90;88.13;98648.50;5040272;28;20095;-76
2023/04/17 02:05:55;;;;;;;56.47;53.58;;;;;;;7.89;89.11;98655.69;5027425;28;20024;-76
2023/04/17 02:08:21;;;;;;;59.28;56.38;;;;;;;7.98;89.30;98650.94;5017070;28;20037;-75
2023/04/17 02:10:46;;;;;;;56.50;53.80;;;;;;;8.00;88.52;98659.56;5036873;28;20474;-75
2023/04/17 02:13:12;;;;;;;57.25;54.30;;;;;;;7.88;88.83;98654.06;5040334;28;20117;-76
2023/04/17 02:15:39;;;;;;;57.33;54.42;;;;;;;7.93;89.04;98659.63;5027239;28;20116;-75
2023/04/17 02:18:05;;;;;;;59.10;56.00;;;;;;;7.78;89.85;98653.72;5023500;28;20115;-76
2023/04/17 02:20:34;;;;;;;58.35;55.35;;;;;;;7.80;89.10;98658.84;5004801;28;20433;-76
2023/04/17 02:23:01;;;;;;;57.45;54.55;;;;;;;7.93;89.62;98664.16;5022685;28;20108;-76
2023/04/17 02:25:27;;;;;;;60.28;57.13;;;;;;;7.78;89.66;98661.75;5023710;28;20105;-76
2023/04/17 02:27:53;;;;;;;57.13;54.28;;;;;;;7.87;89.67;98665.81;5040453;28;20028;-75
2023/04/17 02:30:18;;;;;;;58.50;55.40;;;;;;;7.76;89.93;98652.28;5019982;28;20032;-75
2023/04/17 02:32:44;;;;;;;56.65;53.75;;;;;;;7.80;89.80;98654.31;5003459;28;20038;-77
2023/04/17 02:35:10;;;;;;;57.90;55.00;;;;;;;7.93;89.80;98656.94;5033387;28;20497;-76
2023/04/17 02:37:36;;;;;;;56.78;53.92;;;;;;;7.92;89.04;98657.97;5023204;28;20033;-75
2023/04/17 02:40:05;;;;;;;57.28;54.15;;;;;;;7.87;89.33;98660.47;5043254;28;20517;-76
2023/04/17 02:42:31;;;;;;;55.03;52.20;;;;;;;7.81;89.48;98661.34;5041867;28;20063;-76
2023/04/17 02:44:56;;;;;;;56.03;53.08;;;;;;;7.83;89.32;98658.44;5003280;28;20022;-76
2023/04/17 02:47:22;;;;;;;58.00;54.97;;;;;;;7.92;89.36;98657.97;5016926;28;20128;-76
2023/04/17 02:49:47;;;;;;;58.38;55.28;;;;;;;7.87;89.25;98657.78;5047109;28;20036;-77
2023/04/17 02:52:12;;;;;;;57.92;54.92;;;;;;;8.01;88.85;98655.84;5027162;28;20120;-77
2023/04/17 02:54:38;;;;;;;56.90;53.88;;;;;;;7.98;89.03;98662.44;5006654;28;20074;-76
2023/04/17 02:57:04;;;;;;;57.42;54.33;;;;;;;7.88;89.01;98662.13;5027124;28;20072;-76
2023/04/17 02:59:30;;;;;;;58.97;55.88;;;;;;;7.84;89.39;98655.53;5033813;28;20087;-76
2023/04/17 03:01:58;;;;;;;57.78;54.85;;;;;;;7.92;88.47;98657.97;5026489;28;20033;-76
2023/04/17 03:04:26;;;;;;;56.95;53.97;;;;;;;7.97;88.59;98660.81;5023537;28;20072;-77
2023/04/17 03:06:51;;;;;;;58.15;54.95;;;;;;;7.94;88.95;98658.56;5026575;28;20726;-76
2023/04/17 03:09:19;;;;;;;58.45;55.25;;;;;;;7.96;89.19;98648.44;5033253;28;20029;-77
2023/04/17 03:11:45;;;;;;;58.20;55.20;;;;;;;7.98;88.80;98654.41;5020292;28;20115;-76
2023/04/17 03:14:10;;;;;;;57.60;54.60;;;;;;;7.81;89.55;98650.63;5035900;28;20048;-76
2023/04/17 03:16:35;;;;;;;57.95;54.90;;;;;;;8.00;89.11;98655.03;5026492;28;20040;-76
2023/04/17 03:19:02;;;;;;;59.38;56.17;;;;;;;7.97;90.04;98654.63;5023182;28;20437;-76
2023/04/17 03:21:27;;;;;;;58.50;55.40;;;;;;;8.00;88.79;98654.22;5026195;28;20033;-77
2023/04/17 03:23:53;;;;;;;58.45;55.35;;;;;;;8.01;88.61;98651.28;5032714;28;20116;-77
2023/04/17 03:26:20;;;;;;;57.30;54.30;;;;;;;7.95;88.77;98662.06;5020705;28;20029;-77
2023/04/17 03:28:46;;;;;;;58.22;55.13;;;;;;;7.88;89.59;98667.47;5046263;28;20049;-76
2023/04/17 03:31:12;;;;;;;57.53;54.30;;;;;;;7.86;88.80;98664.19;5016520;28;20068;-77
2023/04/17 03:33:37;;;;;;;58.90;55.90;;;;;;;7.83;88.75;98659.25;5019743;28;20025;-76
2023/04/17 03:36:03;;;;;;;57.05;53.95;;;;;;;7.78;88.77;98656.41;5025768;28;20053;-77
2023/04/17 03:38:29;;;;;;;58.50;55.22;;;;;;;7.87;89.01;98660.47;5032620;28;20029;-77
2023/04/17 03:40:54;;;;;;;57.63;54.42;;;;;;;7.93;88.58;98659.63;5026258;28;20032;-76
2023/04/17 03:43:22;;;;;;;56.95;53.75;;;;;;;7.95;89.04;98662.91;5022903;28;20112;-76
2023/04/17 03:45:48;;;;;;;58.20;55.00;;;;;;;8.13;88.13;98665.66;5022098;28;20039;-76
2023/04/17 03:48:14;;;;;;;56.03;53.03;;;;;;;8.03;88.18;98670.66;5045896;28;20068;-76
2023/04/17 03:50:40;;;;;;;59.63;56.53;;;;;;;8.00;88.01;98668.44;5025337;28;20461;-76
2023/04/17 03:53:05;;;;;;;60.08;56.78;;;;;;;8.09;88.28;98669.00;5019479;28;20029;-76
2023/04/17 03:55:31;;;;;;;58.88;55.75;;;;;;;7.98;88.53;98662.44;5024611;28;20399;-75
2023/04/17 03:57:57;;;;;;;60.40;57.08;;;;;;;7.98;87.95;98673.19;5012113;28;20030;-77
2023/04/17 04:00:27;;;;;;;57.55;54.45;;;;;;;8.12;88.06;98668.56;5034403;28;20493;-77
2023/04/17 04:02:58;;;;;;;58.72;55.42;;;;;;;8.11;87.66;98669.59;5007775;28;20029;-77
2023/04/17 04:05:32;;;;;;;59.15;56.05;;;;;;;7.89;88.36;98674.47;5004391;28;20030;-76
2023/04/17 04:07:58;;;;;;;59.70;56.53;;;;;;;8.06;88.00;98680.97;5063393;28;20395;-78
2023/04/17 04:10:31;;;;;;;58.85;55.45;;;;;;;7.97;88.91;98679.59;5017367;28;20027;-75
2023/04/17 04:12:57;;;;;;;58.00;54.63;;;;;;;8.10;87.76;98687.53;5027879;28;20033;-75
2023/04/17 04:15:24;;;;;;;57.78;54.67;;;;;;;8.14;88.30;98685.25;5017935;28;20482;-75
2023/04/17 04:17:54;;;;;;;58.85;55.45;;;;;;;7.86;88.94;98680.28;5024064;28;20521;-76
2023/04/17 04:20:21;;;;;;;59.72;56.53;;;;;;;8.00;88.49;98687.22;5038455;28;20033;-76
2023/04/17 04:22:48;;;;;;;60.30;56.90;;;;;;;8.01;88.67;98686.16;5007297;28;20137;-77
2023/04/17 04:25:14;;;;;;;60.53;57.22;;;;;;;8.02;89.00;98695.88;5040760;28;20498;-76
2023/04/17 04:27:55;;;;;;;59.90;56.70;;;;;;;8.15;87.09;98695.78;5028128;28;20478;-76
2023/04/17 04:30:26;;;;;;;58.92;55.72;;;;;;;8.22;87.41;98696.53;5006450;28;20498;-75
2023/04/17 04:33:04;;;;;;;57.85;54.55;;;;;;;8.04;87.86;98696.47;5023253;28;20045;-75
2023/04/17 04:35:30;;;;;;;59.65;56.35;;;;;;;8.10;87.82;98692.09;5044303;28;20034;-74
2023/04/17 04:38:01;;;;;;;59.55;56.15;;;;;;;8.07;86.82;98698.72;5028620;28;20466;-74
2023/04/17 04:40:29;;;;;;;60.20;56.80;;;;;;;8.21;87.17;98699.47;5035911;28;20398;-74
2023/04/17 04:42:55;;;;;;;59.03;55.63;;;;;;;8.26;87.42;98691.63;5021361;28;20108;-75
2023/04/17 04:45:26;;;;;;;56.58;53.35;;;;;;;8.11;88.03;98697.25;5019736;28;20482;-75
2023/04/17 04:47:53;;;;;;;59.20;55.65;;;;;;;8.10;87.57;98703.63;5036603;28;20033;-74
2023/04/17 04:50:18;;;;;;;58.05;54.85;;;;;;;8.01;87.76;98698.75;5031467;28;20033;-75
2023/04/17 04:52:44;;;;;;;58.05;54.80;;;;;;;8.06;86.94;98713.16;5044579;28;20516;-75
2023/04/17 04:55:23;;;;;;;55.42;52.40;;;;;;;8.02;87.07;98711.97;5026164;28;20025;-75
2023/04/17 04:57:53;;;;;;;53.47;50.47;;;;;;;8.01;85.62;98718.34;5021404;28;20102;-75
2023/04/17 05:00:19;;;;;;;52.55;49.55;;;;;;;7.97;85.62;98710.94;5040664;28;20050;-75
2023/04/17 05:02:48;;;;;;;52.03;48.92;;;;;;;7.94;86.12;98714.06;5019454;28;20050;-75
2023/04/17 05:05:15;;;;;;;52.42;49.33;;;;;;;7.98;85.86;98716.09;5023691;28;20443;-76
2023/04/17 05:07:40;;;;;;;48.97;46.10;;;;;;;8.00;86.01;98710.53;5024273;28;20112;-77
2023/04/17 05:10:09;;;;;;;52.15;49.20;;;;;;;7.99;86.15;98717.75;5042134;28;20439;-76
2023/04/17 05:12:39;;;;;;;53.28;50.08;;;;;;;8.05;85.80;98722.25;5021313;28;20028;-76
2023/04/17 05:15:07;;;;;;;53.88;50.65;;;;;;;8.11;85.94;98728.59;5022783;28;20360;-75
2023/04/17 05:17:32;;;;;;;55.63;52.33;;;;;;;8.04;85.59;98720.59;5031557;28;20099;-77
2023/04/17 05:19:58;;;;;;;52.75;49.55;;;;;;;8.12;85.16;98724.91;5036145;28;20086;-78
2023/04/17 05:22:23;;;;;;;50.67;47.53;;;;;;;8.07;83.75;98730.91;5021489;28;20017;-77
2023/04/17 05:25:00;;;;;;;51.72;48.50;;;;;;;8.15;84.57;98730.66;5023241;28;20061;-77
2023/04/17 05:27:26;;;;;;;48.28;45.25;;;;;;;8.13;84.29;98723.84;5045209;28;20052;-77
2023/04/17 05:29:54;;;;;;;47.38;44.63;;;;;;;8.27;84.44;98726.28;5027573;28;20293;-76
2023/04/17 05:32:19;;;;;;;46.42;43.63;;;;;;;8.30;84.29;98731.22;5020877;28;20071;-77
2023/04/17 05:34:54;;;;;;;48.90;45.90;;;;;;;8.34;84.09;98736.97;5022145;28;20022;-77
2023/04/17 05:37:23;;;;;;;46.42;43.70;;;;;;;8.39;83.68;98739.00;5026817;28;20116;-76
2023/04/17 05:39:49;;;;;;;46.95;44.05;;;;;;;8.58;83.29;98748.75;5033060;28;20040;-77
2023/04/17 05:42:14;;;;;;;47.17;44.30;;;;;;;8.61;83.48;98742.97;5021452;28;20036;-77
2023/04/17 05:44:40;;;;;;;46.63;43.72;;;;;;;8.62;83.20;98742.75;5037999;28;20067;-76
2023/04/17 05:47:06;;;;;;;49.40;46.60;;;;;;;8.36;83.78;98734.88;5042008;28;20029;-76
2023/04/17 05:49:31;;;;;;;46.50;43.70;;;;;;;8.63;83.23;98748.94;5013897;28;20031;-72
2023/04/17 05:51:57;;;;;;;43.10;40.60;;;;;;;8.66;83.07;98741.25;5038000;28;20029;-71
2023/04/17 05:54:23;;;;;;;44.63;42.08;;;;;;;8.50;83.46;98741.78;5049760;28;20031;-77
2023/04/17 05:56:51;;;;;;;51.85;48.47;;;;;;;8.66;84.80;98743.94;5042213;28;20108;-77
2023/04/17 05:59:17;;;;;;;48.03;45.03;;;;;;;8.72;83.88;98744.94;5032025;28;20032;-77
2023/04/17 06:01:42;;;;;;;46.50;43.55;;;;;;;8.43;84.08;98734.81;5022204;28;20406;-77
2023/04/17 06:04:08;;;;;;;44.80;42.20;;;;;;;8.68;83.01;98743.75;5034847;28;20032;-77
2023/04/17 06:06:33;;;;;;;48.67;45.67;;;;;;;8.67;82.92;98747.44;4994122;28;20525;-77
2023/04/17 06:08:58;;;;;;;45.15;42.35;;;;;;;8.60;82.53;98742.13;5054976;28;20021;-76
2023/04/17 06:11:24;;;;;;;45.10;42.08;;;;;;;8.66;83.18;98732.41;5038136;28;20116;-76
2023/04/17 06:13:50;;;;;;;46.00;43.28;;;;;;;8.77;82.96;98743.25;5000545;28;20021;-76
2023/04/17 06:16:17;;;;;;;44.13;41.22;;;;;;;8.63;82.31;98741.72;4994187;28;20447;-76
2023/04/17 06:18:45;;;;;;;45.47;42.65;;;;;;;8.72;83.19;98748.44;5014830;28;20021;-76
2023/04/17 06:21:11;;;;;;;42.25;39.40;;;;;;;8.70;82.52;98747.03;5042123;28;20031;-76
2023/04/17 06:23:36;;;;;;;45.00;42.00;;;;;;;8.60;82.61;98752.06;5022356;28;20021;-76
2023/04/17 06:26:01;;;;;;;45.38;42.45;;;;;;;8.60;83.25;98757.41;5041842;28;20033;-76
2023/04/17 06:28:27;;;;;;;46.22;43.30;;;;;;;8.79;82.56;98756.44;5023932;28;20032;-76
2023/04/17 06:30:54;;;;;;;40.40;37.50;;;;;;;8.71;81.50;98754.03;5029294;28;20122;-76
2023/04/17 06:33:20;;;;;;;40.60;37.42;;;;;;;8.67;82.17;98760.88;5035383;28;20048;-76
2023/04/17 06:35:45;;;;;;;40.97;38.17;;;;;;;8.79;81.56;98756.44;5037183;28;20494;-76
2023/04/17 06:38:21;;;;;;;44.95;41.92;;;;;;;9.09;82.31;98762.78;5025127;28;20509;-76
2023/04/17 06:40:47;;;;;;;42.92;40.22;;;;;;;8.93;81.22;98763.34;5037211;28;20033;-76
2023/04/17 06:43:16;;;;;;;38.92;36.28;;;;;;;8.86;81.73;98763.41;5023503;28;20508;-76
2023/04/17 06:45:41;;;;;;;40.20;37.60;;;;;;;8.81;81.70;98765.09;5050516;28;20025;-76
2023/04/17 06:48:07;;;;;;;36.17;33.55;;;;;;;8.92;81.57;98762.53;5050311;28;20483;-76
2023/04/17 06:50:32;;;;;;;31.88;29.55;;;;;;;8.88;80.80;98760.50;5044934;28;20037;-75
2023/04/17 06:52:58;;;;;;;30.50;28.17;;;;;;;9.02;80.22;98762.03;5039893;28;20077;-76
2023/04/17 06:55:23;;;;;;;29.83;27.42;;;;;;;8.99;80.17;98770.53;5016266;28;20539;-76
2023/04/17 06:57:49;;;;;;;31.92;29.63;;;;;;;9.01;80.34;98760.38;5023308;28;20056;-75
2023/04/17 07:00:15;;;;;;;31.95;29.67;;;;;;;8.92;81.39;98767.91;5027511;28;20434;-77
2023/04/17 07:02:40;;;;;;;33.38;31.10;;;;;;;9.02;81.03;98770.91;5004377;28;20029;-76
2023/04/17 07:05:06;;;;;;;29.55;27.25;;;;;;;9.00;80.35;98770.31;5042759;28;20029;-76
2023/04/17 07:07:33;;;;;;;29.75;27.65;;;;;;;9.07;79.88;98772.94;5023308;28;20029;-76
2023/04/17 07:09:58;;;;;;;31.17;28.73;;;;;;;9.04;79.99;98778.75;5026861;28;20045;-76
2023/04/17 07:12:24;;;;;;;29.98;27.83;;;;;;;8.99;80.01;98781.25;5046731;28;20129;-76
2023/04/17 07:14:50;;;;;;;29.77;27.67;;;;;;;8.94;80.79;98778.41;5043971;28;20588;-71
2023/04/17 07:17:15;;;;;;;31.13;28.60;;;;;;;9.13;80.29;98780.09;5039286;28;20083;-75
2023/04/17 07:19:40;;;;;;;32.85;30.52;;;;;;;9.27;80.50;98787.00;5043392;28;20037;-76
2023/04/17 07:22:06;;;;;;;28.17;26.20;;;;;;;8.97;80.21;98780.66;5033331;28;20025;-75
2023/04/17 07:24:34;;;;;;;26.40;24.40;;;;;;;8.97;79.45;98791.41;5042549;28;20124;-76
2023/04/17 07:27:03;;;;;;;26.90;24.70;;;;;;;9.10;79.12;98791.31;5006757;28;20021;-76
2023/04/17 07:29:28;;;;;;;31.63;29.38;;;;;;;9.22;80.57;98783.34;5041271;28;20041;-75
2023/04/17 07:31:54;;;;;;;25.30;23.40;;;;;;;9.04;78.85;98789.50;5046408;28;20503;-76
2023/04/17 07:34:20;;;;;;;24.25;22.35;;;;;;;9.24;78.51;98781.25;5025991;28;20127;-75
2023/04/17 07:36:48;;;;;;;26.17;24.27;;;;;;;9.07;79.28;98791.75;5035832;28;20036;-76
2023/04/17 07:39:13;;;;;;;26.60;24.80;;;;;;;8.90;79.08;98790.66;5032817;28;20033;-76
2023/04/17 07:41:39;;;;;;;26.30;24.40;;;;;;;9.07;79.31;98791.75;5045946;28;20472;-75
2023/04/17 07:44:05;;;;;;;26.73;24.90;;;;;;;9.16;79.48;98789.59;5032607;28;20083;-76
2023/04/17 07:46:31;;;;;;;24.88;22.80;;;;;;;9.03;79.01;98794.03;5036149;28;20057;-75
2023/04/17 07:48:57;;;;;;;22.67;20.88;;;;;;;8.86;78.85;98789.44;5042553;28;20072;-76
2023/04/17 07:51:22;;;;;;;24.30;22.40;;;;;;;8.89;79.03;98791.69;5029371;28;20059;-76
2023/04/17 07:53:47;;;;;;;23.67;21.98;;;;;;;9.00;79.15;98785.59;5035501;28;20045;-76
2023/04/17 07:56:13;;;;;;;21.90;20.00;;;;;;;8.98;78.26;98791.19;5022190;28;20075;-76
2023/04/17 07:58:38;;;;;;;21.92;20.30;;;;;;;9.06;78.35;98790.09;5026273;28;20045;-76
2023/04/17 08:01:04;;;;;;;18.80;17.30;;;;;;;9.09;77.69;98800.41;5019735;28;20025;-76
2023/04/17 08:03:30;;;;;;;20.60;19.10;;;;;;;9.17;78.15;98800.09;5033195;28;20033;-76
2023/04/17 08:05:56;;;;;;;17.77;16.48;;;;;;;9.38;78.14;98805.09;5015705;28;20079;-76
2023/04/17 08:08:22;;;;;;;17.77;16.23;;;;;;;9.53;77.44;98808.25;5031142;28;20065;-75
2023/04/17 08:10:48;;;;;;;15.18;14.05;;;;;;;9.41;76.97;98810.03;4997092;28;20030;-76
2023/04/17 08:13:13;;;;;;;12.00;11.10;;;;;;;9.56;76.52;98797.06;5041335;28;20493;-76
2023/04/17 08:15:39;;;;;;;13.88;12.77;;;;;;;9.69;76.32;98802.28;5017590;28;20055;-76
2023/04/17 08:18:06;;;;;;;14.77;13.68;;;;;;;9.71;76.88;98808.25;5025924;28;20410;-76
2023/04/17 08:20:32;;;;;;;10.88;10.07;;;;;;;9.73;75.78;98803.47;5049140;28;20020;-76
2023/04/17 08:22:58;;;;;;;8.43;7.82;;;;;;;9.73;75.01;98810.75;5024394;28;20629;-76
2023/04/17 08:25:24;;;;;;;11.20;10.45;;;;;;;9.93;75.68;98810.50;5038303;28;20074;-76
2023/04/17 08:27:49;;;;;;;12.77;11.88;;;;;;;10.12;75.46;98806.78;5042467;28;20029;-76
2023/04/17 08:30:16;;;;;;;7.88;7.28;;;;;;;9.78;74.57;98820.84;5038171;28;20041;-77
2023/04/17 08:32:46;;;;;;;6.65;6.13;;;;;;;9.74;73.77;98821.28;5042360;28;20041;-76
2023/04/17 08:35:13;;;;;;;7.15;6.65;;;;;;;9.95;73.96;98821.84;5028454;28;20036;-76
2023/04/17 08:37:39;;;;;;;8.43;7.82;;;;;;;9.94;75.39;98831.00;5025080;28;20025;-75
2023/04/17 08:40:12;;;;;;;7.95;7.45;;;;;;;9.97;74.77;98825.13;5037776;28;20041;-76
2023/04/17 08:42:38;;;;;;;6.90;6.40;;;;;;;9.86;75.29;98831.28;5040478;28;20036;-76
2023/04/17 08:45:06;;;;;;;7.05;6.65;;;;;;;9.87;75.10;98835.63;5031535;28;20474;-76
2023/04/17 08:47:34;;;;;;;6.55;6.15;;;;;;;9.79;74.48;98827.84;5023388;28;20410;-76
2023/04/17 08:50:17;;;;;;;6.40;6.00;;;;;;;9.85;74.23;98826.97;4998691;28;20025;-77
2023/04/17 08:52:44;;;;;;;6.95;6.55;;;;;;;9.67;74.99;98831.28;5045790;28;20041;-76
2023/04/17 08:55:12;;;;;;;8.50;8.00;;;;;;;9.68;76.32;98832.91;5044073;28;20109;-76
2023/04/17 08:57:59;;;;;;;8.70;8.13;;;;;;;9.62;76.02;98833.81;5014763;28;20071;-76
2023/04/17 09:00:32;;;;;;;9.50;9.00;;;;;;;9.53;76.62;98839.69;5026536;28;20036;-77
2023/04/17 09:02:58;;;;;;;10.13;9.63;;;;;;;9.60;76.81;98835.06;5021082;28;20375;-76
2023/04/17 09:05:25;;;;;;;9.68;9.18;;;;;;;9.70;76.52;98844.28;5005683;28;20049;-76
2023/04/17 09:08:10;;;;;;;10.30;9.80;;;;;;;9.69;75.53;98839.94;5044456;28;20491;-77
2023/04/17 09:10:43;;;;;;;11.98;11.40;;;;;;;9.73;76.94;98835.75;5044350;28;20033;-76
2023/04/17 09:13:13;;;;;;;11.88;11.27;;;;;;;9.83;77.00;98846.00;5023800;28;20079;-76
2023/04/17 09:15:38;;;;;;;10.68;10.07;;;;;;;9.75;76.42;98838.25;5037565;28;20462;-76
2023/04/17 09:18:04;;;;;;;17.23;16.35;;;;;;;9.93;78.12;98845.47;5023845;28;20041;-76
2023/04/17 09:20:29;;;;;;;14.27;13.57;;;;;;;9.84;77.14;98836.06;5017443;28;20022;-77
2023/04/17 09:23:02;;;;;;;16.38;15.48;;;;;;;9.83;77.22;98829.03;5050621;28;20067;-76
2023/04/17 09:25:28;;;;;;;11.40;10.77;;;;;;;9.81;76.17;98841.88;5016278;28;20029;-77
2023/04/17 09:27:55;;;;;;;11.10;10.40;;;;;;;9.71;76.17;98840.53;5029851;28;20364;-76
2023/04/17 09:30:23;;;;;;;13.20;12.38;;;;;;;9.72;78.17;98833.28;5044115;28;20124;-77
2023/04/17 09:33:02;;;;;;;12.55;11.88;;;;;;;9.92;76.84;98838.47;5026082;28;20032;-77
2023/04/17 09:35:27;;;;;;;8.73;8.20;;;;;;;10.02;75.04;98841.44;5020962;28;20037;-76
2023/04/17 09:37:54;;;;;;;7.72;7.32;;;;;;;10.20;74.37;98838.75;5036954;28;20120;-77
2023/04/17 09:40:21;;;;;;;6.70;6.30;;;;;;;10.30;74.60;98841.75;5021035;28;20036;-77
2023/04/17 09:43:00;;;;;;;5.43;5.13;;;;;;;10.12;74.62;98839.09;5036643;28;20029;-77
2023/04/17 09:45:38;;;;;;;6.75;6.45;;;;;;;10.40;74.89;98847.41;5023054;28;20116;-77
2023/04/17 09:48:09;;;;;;;4.75;4.45;;;;;;;10.03;72.46;98843.91;5018387;28;20068;-76
2023/04/17 09:50:34;;;;;;;6.22;5.90;;;;;;;10.06;73.95;98843.44;5007585;28;20487;-76
2023/04/17 09:53:01;;;;;;;6.13;5.82;;;;;;;10.09;74.78;98844.88;5013167;28;20030;-76
2023/04/17 09:55:28;;;;;;;6.97;6.50;;;;;;;10.05;74.57;98838.31;5040596;28;20044;-76
2023/04/17 09:57:55;;;;;;;7.25;6.85;;;;;;;10.19;75.08;98853.28;5020601;28;20478;-77
2023/04/17 10:00:22;;;;;;;6.97;6.57;;;;;;;9.60;75.74;98846.66;5040602;28;20399;-76
2023/04/17 10:02:52;;;;;;;7.55;7.15;;;;;;;9.90;75.27;98853.97;5034584;28;20032;-76
2023/04/17 10:05:26;;;;;;;7.30;6.90;;;;;;;9.98;75.12;98861.78;5039124;28;20040;-76
2023/04/17 10:07:51;;;;;;;8.10;7.47;;;;;;;9.90;75.44;98853.97;5038405;28;20057;-77
2023/04/17 10:10:22;;;;;;;7.30;6.90;;;;;;;9.67;75.91;98851.97;5019564;28;20506;-76
2023/04/17 10:12:48;;;;;;;9.68;9.07;;;;;;;9.68;75.99;98845.56;5013218;28;20030;-77
2023/04/17 10:15:15;;;;;;;10.15;9.65;;;;;;;9.40;77.07;98846.03;5026135;28;20017;-77
2023/04/17 10:17:41;;;;;;;11.93;11.32;;;;;;;9.78;75.92;98853.09;5000512;28;20391;-76
2023/04/17 10:20:19;;;;;;;12.80;12.15;;;;;;;9.60;77.48;98851.19;5030765;28;20030;-76
2023/04/17 10:22:52;;;;;;;10.60;10.00;;;;;;;9.57;76.14;98844.41;5028006;28;20045;-76
2023/04/17 10:25:20;;;;;;;14.07;13.38;;;;;;;9.89;76.88;98845.13;5000933;28;20403;-76
2023/04/17 10:27:47;;;;;;;10.50;10.00;;;;;;;9.79;75.52;98844.81;5030081;28;20390;-76
2023/04/17 10:30:13;;;;;;;12.95;12.15;;;;;;;9.67;76.32;98847.41;5034210;28;20067;-76
2023/04/17 10:32:45;;;;;;;11.55;10.85;;;;;;;9.46;76.62;98839.75;5041806;28;20017;-77
2023/04/17 10:35:14;;;;;;;10.60;10.10;;;;;;;9.68;75.94;98849.03;5043091;28;20037;-76
2023/04/17 10:37:45;;;;;;;12.50;11.70;;;;;;;9.94;76.30;98836.38;5042049;28;20041;-77
2023/04/17 10:40:11;;;;;;;10.65;10.00;;;;;;;10.39;74.37;98838.50;5036644;28;20040;-76
2023/04/17 10:42:37;;;;;;;9.95;9.45;;;;;;;10.18;75.43;98835.47;5021781;28;20022;-77
2023/04/17 10:45:05;;;;;;;9.20;8.70;;;;;;;9.87;75.83;98838.31;5047202;28;20037;-76
2023/04/17 10:47:34;;;;;;;10.00;9.50;;;;;;;9.83;75.69;98843.31;5033680;28;20017;-77
2023/04/17 10:50:04;;;;;;;10.02;9.52;;;;;;;10.05;75.33;98843.69;5036601;28;20110;-77
2023/04/17 10:52:38;;;;;;;8.70;8.20;;;;;;;9.97;75.50;98842.13;5020611;28;20021;-76
2023/04/17 10:55:06;;;;;;;9.43;8.93;;;;;;;10.04;75.68;98842.03;5040860;28;20033;-77
2023/04/17 10:57:55;;;;;;;9.50;9.10;;;;;;;10.11;74.95;98843.63;5035617;28;20025;-77
2023/04/17 11:00:35;;;;;;;8.60;8.13;;;;;;;9.71;75.03;98843.22;5029931;28;20034;-77
2023/04/17 11:03:02;;;;;;;7.90;7.50;;;;;;;9.68;75.42;98840.97;5029848;28;20418;-76
2023/04/17 11:05:28;;;;;;;8.20;7.70;;;;;;;9.99;74.65;98845.41;5013188;28;20033;-77
2023/04/17 11:07:53;;;;;;;6.90;6.60;;;;;;;9.89;74.25;98838.91;5039898;28;20040;-77
2023/04/17 11:10:19;;;;;;;7.55;7.18;;;;;;;9.99;74.46;98839.22;5021253;28;20026;-77
2023/04/17 11:12:55;;;;;;;7.00;6.60;;;;;;;9.85;74.50;98837.72;5045586;28;20087;-76
2023/04/17 11:15:30;;;;;;;6.90;6.47;;;;;;;9.90;74.47;98845.91;5047800;28;20064;-76
2023/04/17 11:17:56;;;;;;;7.75;7.35;;;;;;;10.09;75.28;98834.94;5024924;28;20092;-74
2023/04/17 11:20:27;;;;;;;6.00;5.70;;;;;;;9.96;73.47;98829.72;5041525;28;20453;-75
2023/04/17 11:22:52;;;;;;;9.02;8.35;;;;;;;10.17;74.95;98831.16;5026855;28;20079;-75
2023/04/17 11:25:24;;;;;;;8.00;7.60;;;;;;;10.25;74.29;98838.91;5050663;28;20052;-75
2023/04/17 11:28:03;;;;;;;6.10;5.80;;;;;;;10.23;73.50;98825.69;5009802;28;20036;-74